createdAt,value
2017-06-16T00:00:07.058Z,1003.59
2017-06-16T00:01:08.496Z,1003.62
2017-06-16T00:02:09.936Z,1003.59
2017-06-16T00:03:11.377Z,1003.63
2017-06-16T00:04:12.827Z,1003.61
2017-06-16T00:05:14.313Z,1003.65
2017-06-16T00:06:15.748Z,1003.67
2017-06-16T00:07:17.183Z,1003.64
2017-06-16T00:08:18.621Z,1003.67
2017-06-16T00:09:20.052Z,1003.60
2017-06-16T00:10:21.495Z,1003.63
2017-06-16T00:11:22.935Z,1003.66
2017-06-16T00:12:24.402Z,1003.66
2017-06-16T00:13:25.847Z,1003.69
2017-06-16T00:14:27.283Z,1003.73
2017-06-16T00:15:28.721Z,1003.72
2017-06-16T00:16:30.158Z,1003.71
2017-06-16T00:17:31.600Z,1003.68
2017-06-16T00:18:33.037Z,1003.72
2017-06-16T00:19:34.476Z,1003.69
2017-06-16T00:20:35.914Z,1003.69
2017-06-16T00:21:37.354Z,1003.71
2017-06-16T00:22:38.795Z,1003.75
2017-06-16T00:23:40.235Z,1003.77
2017-06-16T00:24:41.676Z,1003.74
2017-06-16T00:25:43.118Z,1003.78
2017-06-16T00:26:44.607Z,1003.76
2017-06-16T00:27:46.043Z,1003.79
2017-06-16T00:28:47.474Z,1003.76
2017-06-16T00:29:48.918Z,1003.78
2017-06-16T00:30:50.362Z,1003.76
2017-06-16T00:31:51.811Z,1003.82
2017-06-16T00:32:53.244Z,1003.77
2017-06-16T00:33:54.690Z,1003.77
2017-06-16T00:34:56.127Z,1003.75
2017-06-16T00:35:57.565Z,1003.75
2017-06-16T00:36:58.999Z,1003.79
2017-06-16T00:38:00.453Z,1003.78
2017-06-16T00:39:01.892Z,1003.76
2017-06-16T00:40:03.332Z,1003.77
2017-06-16T00:41:04.774Z,1003.76
2017-06-16T00:42:06.215Z,1003.78
2017-06-16T00:43:07.656Z,1003.78
2017-06-16T00:44:09.094Z,1003.76
2017-06-16T00:45:10.535Z,1003.80
2017-06-16T00:46:12.059Z,1003.80
2017-06-16T00:47:13.492Z,1003.80
2017-06-16T00:48:14.925Z,1003.83
2017-06-16T00:49:16.372Z,1003.83
2017-06-16T00:50:17.806Z,1003.87
2017-06-16T00:51:19.243Z,1003.85
2017-06-16T00:52:20.681Z,1003.87
2017-06-16T00:53:22.182Z,1003.88
2017-06-16T00:54:23.618Z,1003.94
2017-06-16T00:55:25.047Z,1003.90
2017-06-16T00:56:26.489Z,1003.91
2017-06-16T00:57:27.930Z,1003.91
2017-06-16T00:58:29.360Z,1003.93
2017-06-16T00:59:30.800Z,1003.94
2017-06-16T01:00:32.249Z,1003.88
2017-06-16T01:01:33.689Z,1003.94
2017-06-16T01:02:35.122Z,1003.96
2017-06-16T01:03:36.560Z,1003.99
2017-06-16T01:04:37.998Z,1003.96
2017-06-16T01:05:39.428Z,1003.99
2017-06-16T01:06:40.872Z,1004.03
2017-06-16T01:07:42.312Z,1004.05
2017-06-16T01:08:43.756Z,1004.07
2017-06-16T01:09:45.202Z,1004.07
2017-06-16T01:10:46.640Z,1004.04
2017-06-16T01:11:48.076Z,1004.09
2017-06-16T01:12:49.512Z,1004.07
2017-06-16T01:13:50.948Z,1004.05
2017-06-16T01:14:52.387Z,1004.11
2017-06-16T01:15:53.831Z,1004.10
2017-06-16T01:16:55.262Z,1004.09
2017-06-16T01:17:56.779Z,1004.08
2017-06-16T01:18:58.218Z,1004.09
2017-06-16T01:19:59.652Z,1004.13
2017-06-16T01:21:01.100Z,1004.11
2017-06-16T01:22:02.535Z,1004.12
2017-06-16T01:23:03.979Z,1004.13
2017-06-16T01:24:05.419Z,1004.09
2017-06-16T01:25:06.853Z,1004.13
2017-06-16T01:26:08.291Z,1004.15
2017-06-16T01:27:09.736Z,1004.14
2017-06-16T01:28:11.172Z,1004.14
2017-06-16T01:29:12.610Z,1004.15
2017-06-16T01:30:14.052Z,1004.19
2017-06-16T01:31:15.486Z,1004.14
2017-06-16T01:32:16.919Z,1004.17
2017-06-16T01:33:18.365Z,1004.15
2017-06-16T01:34:19.800Z,1004.18
2017-06-16T01:35:21.244Z,1004.20
2017-06-16T01:36:22.683Z,1004.16
2017-06-16T01:37:24.165Z,1004.22
2017-06-16T01:38:25.596Z,1004.22
2017-06-16T01:39:27.029Z,1004.25
2017-06-16T01:40:28.472Z,1004.25
2017-06-16T01:41:29.917Z,1004.27
2017-06-16T01:42:31.360Z,1004.32
2017-06-16T01:43:32.796Z,1004.34
2017-06-16T01:44:34.326Z,1004.36
2017-06-16T01:45:35.760Z,1004.34
2017-06-16T01:46:37.199Z,1004.41
2017-06-16T01:47:38.630Z,1004.41
2017-06-16T01:48:40.148Z,1004.42
2017-06-16T01:49:41.589Z,1004.41
2017-06-16T01:50:43.024Z,1004.41
2017-06-16T01:51:44.467Z,1004.42
2017-06-16T01:52:45.895Z,1004.39
2017-06-16T01:53:47.335Z,1004.39
2017-06-16T01:54:48.772Z,1004.43
2017-06-16T01:55:50.216Z,1004.42
2017-06-16T01:56:51.658Z,1004.46
2017-06-16T01:57:53.092Z,1004.42
2017-06-16T01:58:54.581Z,1004.43
2017-06-16T01:59:56.014Z,1004.46
2017-06-16T02:00:57.450Z,1004.48
2017-06-16T02:01:58.886Z,1004.50
2017-06-16T02:03:00.324Z,1004.53
2017-06-16T02:04:01.769Z,1004.54
2017-06-16T02:05:03.211Z,1004.53
2017-06-16T02:06:04.648Z,1004.60
2017-06-16T02:07:06.082Z,1004.63
2017-06-16T02:08:07.517Z,1004.63
2017-06-16T02:09:08.952Z,1004.61
2017-06-16T02:10:10.389Z,1004.63
2017-06-16T02:11:11.821Z,1004.64
2017-06-16T02:12:13.262Z,1004.65
2017-06-16T02:13:14.771Z,1004.67
2017-06-16T02:14:16.206Z,1004.70
2017-06-16T02:15:17.638Z,1004.74
2017-06-16T02:16:19.073Z,1004.77
2017-06-16T02:17:20.557Z,1004.78
2017-06-16T02:18:21.995Z,1004.76
2017-06-16T02:19:23.433Z,1004.82
2017-06-16T02:20:24.868Z,1004.81
2017-06-16T02:21:26.302Z,1004.78
2017-06-16T02:22:27.739Z,1004.80
2017-06-16T02:23:29.167Z,1004.83
2017-06-16T02:24:30.610Z,1004.85
2017-06-16T02:25:32.047Z,1004.84
2017-06-16T02:26:33.481Z,1004.90
2017-06-16T02:27:34.952Z,1004.93
2017-06-16T02:28:36.352Z,1004.92
2017-06-16T02:29:37.784Z,1004.95
2017-06-16T02:30:39.221Z,1004.94
2017-06-16T02:31:40.658Z,1004.91
2017-06-16T02:32:42.098Z,1004.89
2017-06-16T02:33:43.537Z,1004.93
2017-06-16T02:34:44.979Z,1004.92
2017-06-16T02:35:46.473Z,1004.93
2017-06-16T02:36:47.907Z,1004.94
2017-06-16T02:37:49.341Z,1004.97
2017-06-16T02:38:50.775Z,1004.94
2017-06-16T02:39:52.219Z,1004.92
2017-06-16T02:40:53.658Z,1004.95
2017-06-16T02:41:55.092Z,1004.97
2017-06-16T02:42:56.527Z,1004.96
2017-06-16T02:43:57.963Z,1004.99
2017-06-16T02:44:59.400Z,1004.97
2017-06-16T02:46:00.889Z,1004.99
2017-06-16T02:47:02.323Z,1005.03
2017-06-16T02:48:03.768Z,1005.02
2017-06-16T02:49:05.205Z,1005.03
2017-06-16T02:50:06.710Z,1005.08
2017-06-16T02:51:08.141Z,1005.03
2017-06-16T02:52:09.574Z,1005.07
2017-06-16T02:53:11.013Z,1005.06
2017-06-16T02:54:12.539Z,1005.07
2017-06-16T02:55:13.942Z,1005.13
2017-06-16T02:56:15.377Z,1005.17
2017-06-16T02:57:16.809Z,1005.18
2017-06-16T02:58:18.245Z,1005.16
2017-06-16T02:59:19.688Z,1005.16
2017-06-16T03:00:21.125Z,1005.16
2017-06-16T03:01:22.563Z,1005.13
2017-06-16T03:02:24.000Z,1005.13
2017-06-16T03:03:25.436Z,1005.11
2017-06-16T03:04:26.915Z,1005.15
2017-06-16T03:05:28.398Z,1005.13
2017-06-16T03:06:29.831Z,1005.16
2017-06-16T03:07:31.266Z,1005.16
2017-06-16T03:08:32.703Z,1005.18
2017-06-16T03:09:34.168Z,1005.15
2017-06-16T03:10:35.605Z,1005.16
2017-06-16T03:11:37.040Z,1005.13
2017-06-16T03:12:38.481Z,1005.05
2017-06-16T03:13:39.912Z,1005.15
2017-06-16T03:14:41.346Z,1005.16
2017-06-16T03:15:42.828Z,1005.08
2017-06-16T03:16:44.268Z,1005.07
2017-06-16T03:17:45.707Z,1005.13
2017-06-16T03:18:47.139Z,1005.15
2017-06-16T03:19:48.577Z,1005.17
2017-06-16T03:20:50.010Z,1005.24
2017-06-16T03:21:51.451Z,1005.20
2017-06-16T03:22:52.887Z,1005.28
2017-06-16T03:23:54.332Z,1005.26
2017-06-16T03:24:55.766Z,1005.25
2017-06-16T03:25:57.203Z,1005.27
2017-06-16T03:26:58.637Z,1005.24
2017-06-16T03:28:00.074Z,1005.24
2017-06-16T03:29:01.511Z,1005.20
2017-06-16T03:30:02.978Z,1005.18
2017-06-16T03:31:04.417Z,1005.15
2017-06-16T03:32:05.860Z,1005.15
2017-06-16T03:33:07.293Z,1005.13
2017-06-16T03:34:08.722Z,1005.15
2017-06-16T03:35:10.161Z,1005.20
2017-06-16T03:36:11.597Z,1005.19
2017-06-16T03:37:13.033Z,1005.24
2017-06-16T03:38:14.471Z,1005.26
2017-06-16T03:39:15.910Z,1005.33
2017-06-16T03:40:17.341Z,1005.33
2017-06-16T03:41:18.778Z,1005.37
2017-06-16T03:42:20.211Z,1005.39
2017-06-16T03:43:21.648Z,1005.37
2017-06-16T03:44:23.084Z,1005.33
2017-06-16T03:45:24.525Z,1005.29
2017-06-16T03:46:25.961Z,1005.31
2017-06-16T03:47:27.401Z,1005.31
2017-06-16T03:48:28.835Z,1005.36
2017-06-16T03:49:30.267Z,1005.37
2017-06-16T03:50:31.710Z,1005.41
2017-06-16T03:51:33.138Z,1005.43
2017-06-16T03:52:34.575Z,1005.48
2017-06-16T03:53:36.013Z,1005.46
2017-06-16T03:54:37.448Z,1005.53
2017-06-16T03:55:38.889Z,1005.48
2017-06-16T03:56:40.319Z,1005.58
2017-06-16T03:57:41.757Z,1005.57
2017-06-16T03:58:43.200Z,1005.56
2017-06-16T03:59:44.628Z,1005.55
2017-06-16T04:00:46.065Z,1005.59
2017-06-16T04:01:47.498Z,1005.55
2017-06-16T04:02:48.934Z,1005.62
2017-06-16T04:03:50.368Z,1005.62
2017-06-16T04:04:51.804Z,1005.60
2017-06-16T04:05:53.244Z,1005.58
2017-06-16T04:06:54.687Z,1005.60
2017-06-16T04:07:56.123Z,1005.58
2017-06-16T04:08:57.553Z,1005.57
2017-06-16T04:09:58.992Z,1005.61
2017-06-16T04:11:00.422Z,1005.60
2017-06-16T04:12:01.854Z,1005.60
2017-06-16T04:13:03.289Z,1005.66
2017-06-16T04:14:04.721Z,1005.67
2017-06-16T04:15:06.160Z,1005.65
2017-06-16T04:16:07.591Z,1005.68
2017-06-16T04:17:09.025Z,1005.66
2017-06-16T04:18:10.461Z,1005.70
2017-06-16T04:19:11.895Z,1005.66
2017-06-16T04:20:13.334Z,1005.69
2017-06-16T04:21:14.767Z,1005.68
2017-06-16T04:22:16.202Z,1005.69
2017-06-16T04:23:17.636Z,1005.71
2017-06-16T04:24:19.069Z,1005.66
2017-06-16T04:25:20.506Z,1005.71
2017-06-16T04:26:21.938Z,1005.74
2017-06-16T04:27:23.375Z,1005.74
2017-06-16T04:28:24.818Z,1005.79
2017-06-16T04:29:26.254Z,1005.79
2017-06-16T04:30:27.689Z,1005.81
2017-06-16T04:31:29.125Z,1005.87
2017-06-16T04:32:30.555Z,1005.85
2017-06-16T04:33:31.990Z,1005.88
2017-06-16T04:34:33.431Z,1005.89
2017-06-16T04:35:34.865Z,1005.90
2017-06-16T04:36:36.305Z,1005.93
2017-06-16T04:37:37.738Z,1005.96
2017-06-16T04:38:39.173Z,1005.91
2017-06-16T04:39:40.608Z,1005.87
2017-06-16T04:40:42.042Z,1005.91
2017-06-16T04:41:43.477Z,1005.93
2017-06-16T04:42:44.915Z,1005.94
2017-06-16T04:43:46.346Z,1005.94
2017-06-16T04:44:47.787Z,1005.98
2017-06-16T04:45:49.224Z,1006.00
2017-06-16T04:46:50.658Z,1006.02
2017-06-16T04:47:52.096Z,1006.03
2017-06-16T04:48:53.538Z,1006.00
2017-06-16T04:49:54.975Z,1006.00
2017-06-16T04:50:56.420Z,1006.02
2017-06-16T04:51:57.851Z,1006.03
2017-06-16T04:52:59.285Z,1005.99
2017-06-16T04:54:00.721Z,1006.03
2017-06-16T04:55:02.149Z,1006.01
2017-06-16T04:56:03.600Z,1006.04
2017-06-16T04:57:05.032Z,1006.07
2017-06-16T04:58:06.466Z,1006.08
2017-06-16T04:59:07.903Z,1006.13
2017-06-16T05:00:09.334Z,1006.11
2017-06-16T05:01:10.767Z,1006.10
2017-06-16T05:02:12.207Z,1006.08
2017-06-16T05:03:13.645Z,1006.08
2017-06-16T05:04:15.087Z,1006.12
2017-06-16T05:05:16.524Z,1006.11
2017-06-16T05:06:17.959Z,1006.11
2017-06-16T05:07:19.399Z,1006.06
2017-06-16T05:08:20.834Z,1006.13
2017-06-16T05:09:22.276Z,1006.08
2017-06-16T05:10:23.710Z,1006.13
2017-06-16T05:11:25.148Z,1006.14
2017-06-16T05:12:26.587Z,1006.15
2017-06-16T05:13:28.025Z,1006.13
2017-06-16T05:14:29.462Z,1006.14
2017-06-16T05:15:30.898Z,1006.13
2017-06-16T05:16:32.339Z,1006.17
2017-06-16T05:17:33.775Z,1006.17
2017-06-16T05:18:35.223Z,1006.20
2017-06-16T05:19:36.657Z,1006.27
2017-06-16T05:20:38.091Z,1006.24
2017-06-16T05:21:39.534Z,1006.27
2017-06-16T05:22:40.966Z,1006.28
2017-06-16T05:23:42.402Z,1006.31
2017-06-16T05:24:43.842Z,1006.30
2017-06-16T05:25:45.283Z,1006.38
2017-06-16T05:26:46.721Z,1006.33
2017-06-16T05:27:48.153Z,1006.35
2017-06-16T05:28:49.584Z,1006.31
2017-06-16T05:29:51.017Z,1006.34
2017-06-16T05:30:52.455Z,1006.31
2017-06-16T05:31:53.907Z,1006.31
2017-06-16T05:32:55.337Z,1006.30
2017-06-16T05:33:56.783Z,1006.27
2017-06-16T05:34:58.217Z,1006.25
2017-06-16T05:35:59.651Z,1006.25
2017-06-16T05:37:01.120Z,1006.23
2017-06-16T05:38:02.530Z,1006.27
2017-06-16T05:39:03.971Z,1006.29
2017-06-16T05:40:05.410Z,1006.30
2017-06-16T05:41:06.854Z,1006.30
2017-06-16T05:42:08.342Z,1006.33
2017-06-16T05:43:09.779Z,1006.29
2017-06-16T05:44:11.222Z,1006.29
2017-06-16T05:45:12.669Z,1006.30
2017-06-16T05:46:14.105Z,1006.30
2017-06-16T05:47:15.544Z,1006.29
2017-06-16T05:48:16.982Z,1006.29
2017-06-16T05:49:18.429Z,1006.30
2017-06-16T05:50:19.858Z,1006.37
2017-06-16T05:51:21.292Z,1006.39
2017-06-16T05:52:22.768Z,1006.38
2017-06-16T05:53:24.204Z,1006.38
2017-06-16T05:54:25.644Z,1006.37
2017-06-16T05:55:27.088Z,1006.45
2017-06-16T05:56:28.525Z,1006.41
2017-06-16T05:57:29.966Z,1006.45
2017-06-16T05:58:31.402Z,1006.47
2017-06-16T05:59:32.836Z,1006.48
2017-06-16T06:00:34.274Z,1006.53
2017-06-16T06:01:35.717Z,1006.48
2017-06-16T06:02:37.155Z,1006.49
2017-06-16T06:03:38.662Z,1006.49
2017-06-16T06:04:40.099Z,1006.52
2017-06-16T06:05:41.537Z,1006.57
2017-06-16T06:06:42.971Z,1006.59
2017-06-16T06:07:44.437Z,1006.62
2017-06-16T06:08:45.880Z,1006.64
2017-06-16T06:09:47.320Z,1006.62
2017-06-16T06:10:48.751Z,1006.62
2017-06-16T06:11:50.228Z,1006.56
2017-06-16T06:12:51.662Z,1006.57
2017-06-16T06:13:53.100Z,1006.57
2017-06-16T06:14:54.549Z,1006.60
2017-06-16T06:15:55.990Z,1006.60
2017-06-16T06:16:57.425Z,1006.64
2017-06-16T06:17:58.862Z,1006.69
2017-06-16T06:19:00.348Z,1006.71
2017-06-16T06:20:01.782Z,1006.69
2017-06-16T06:21:03.217Z,1006.75
2017-06-16T06:22:04.649Z,1006.71
2017-06-16T06:23:06.092Z,1006.75
2017-06-16T06:24:07.526Z,1006.76
2017-06-16T06:25:08.974Z,1006.78
2017-06-16T06:26:10.415Z,1006.77
2017-06-16T06:27:11.854Z,1006.80
2017-06-16T06:28:13.296Z,1006.83
2017-06-16T06:29:14.736Z,1006.86
2017-06-16T06:30:16.177Z,1006.95
2017-06-16T06:31:17.624Z,1006.94
2017-06-16T06:32:19.201Z,1006.97
2017-06-16T06:33:20.643Z,1006.91
2017-06-16T06:34:22.076Z,1006.93
2017-06-16T06:35:23.536Z,1006.95
2017-06-16T06:36:24.947Z,1006.95
2017-06-16T06:37:26.944Z,1006.98
2017-06-16T06:38:28.162Z,1007.01
2017-06-16T06:39:29.603Z,1007.01
2017-06-16T06:40:31.032Z,1007.07
2017-06-16T06:41:32.478Z,1006.98
2017-06-16T06:42:33.917Z,1007.00
2017-06-16T06:43:35.968Z,1007.03
2017-06-16T06:44:37.408Z,1007.03
2017-06-16T06:45:38.844Z,1007.03
2017-06-16T06:46:40.275Z,1007.05
2017-06-16T06:47:42.020Z,1007.06
2017-06-16T06:48:43.458Z,1007.07
2017-06-16T06:49:44.904Z,1007.12
2017-06-16T06:50:46.342Z,1007.11
2017-06-16T06:51:47.937Z,1007.14
2017-06-16T06:52:49.381Z,1007.13
2017-06-16T06:53:50.816Z,1007.15
2017-06-16T06:54:52.267Z,1007.13
2017-06-16T06:55:53.776Z,1007.14
2017-06-16T06:56:55.202Z,1007.16
2017-06-16T06:57:56.637Z,1007.23
2017-06-16T06:58:58.077Z,1007.25
2017-06-16T06:59:59.513Z,1007.24
2017-06-16T07:01:01.044Z,1007.24
2017-06-16T07:02:02.475Z,1007.28
2017-06-16T07:03:03.910Z,1007.23
2017-06-16T07:04:05.349Z,1007.26
2017-06-16T07:05:06.895Z,1007.22
2017-06-16T07:06:08.336Z,1007.23
2017-06-16T07:07:09.767Z,1007.25
2017-06-16T07:08:11.204Z,1007.29
2017-06-16T07:09:12.718Z,1007.27
2017-06-16T07:10:14.176Z,1007.28
2017-06-16T07:11:15.634Z,1007.27
2017-06-16T07:12:17.071Z,1007.31
2017-06-16T07:13:18.617Z,1007.27
2017-06-16T07:14:19.995Z,1007.28
2017-06-16T07:15:21.428Z,1007.30
2017-06-16T07:16:23.019Z,1007.32
2017-06-16T07:17:24.451Z,1007.33
2017-06-16T07:18:25.880Z,1007.35
2017-06-16T07:19:27.426Z,1007.32
2017-06-16T07:20:29.116Z,1007.33
2017-06-16T07:21:30.544Z,1007.29
2017-06-16T07:22:31.981Z,1007.33
2017-06-16T07:23:33.593Z,1007.34
2017-06-16T07:24:35.091Z,1007.32
2017-06-16T07:25:36.547Z,1007.32
2017-06-16T07:26:38.039Z,1007.37
2017-06-16T07:27:39.468Z,1007.40
2017-06-16T07:28:41.050Z,1007.38
2017-06-16T07:29:42.483Z,1007.39
2017-06-16T07:30:43.916Z,1007.39
2017-06-16T07:31:45.352Z,1007.42
2017-06-16T07:32:46.792Z,1007.43
2017-06-16T07:33:48.237Z,1007.42
2017-06-16T07:34:49.686Z,1007.39
2017-06-16T07:35:51.132Z,1007.37
2017-06-16T07:36:52.569Z,1007.39
2017-06-16T07:37:54.012Z,1007.39
2017-06-16T07:38:55.447Z,1007.35
2017-06-16T07:39:56.895Z,1007.39
2017-06-16T07:40:58.334Z,1007.41
2017-06-16T07:41:59.776Z,1007.40
2017-06-16T07:43:01.220Z,1007.35
2017-06-16T07:44:02.659Z,1007.41
2017-06-16T07:45:04.089Z,1007.42
2017-06-16T07:46:05.530Z,1007.42
2017-06-16T07:47:06.963Z,1007.42
2017-06-16T07:48:08.405Z,1007.46
2017-06-16T07:49:09.846Z,1007.42
2017-06-16T07:50:11.288Z,1007.44
2017-06-16T07:51:12.735Z,1007.44
2017-06-16T07:52:14.154Z,1007.44
2017-06-16T07:53:15.604Z,1007.42
2017-06-16T07:54:17.299Z,1007.39
2017-06-16T07:55:18.702Z,1007.47
2017-06-16T07:56:20.139Z,1007.44
2017-06-16T07:57:21.578Z,1007.44
2017-06-16T07:58:23.020Z,1007.50
2017-06-16T07:59:24.450Z,1007.46
2017-06-16T08:00:25.886Z,1007.46
2017-06-16T08:01:27.331Z,1007.48
2017-06-16T08:02:28.769Z,1007.49
2017-06-16T08:03:30.203Z,1007.50
2017-06-16T08:04:31.645Z,1007.45
2017-06-16T08:05:33.083Z,1007.45
2017-06-16T08:06:34.534Z,1007.48
2017-06-16T08:07:35.961Z,1007.45
2017-06-16T08:08:37.400Z,1007.45
2017-06-16T08:09:38.836Z,1007.42
2017-06-16T08:10:40.278Z,1007.41
2017-06-16T08:11:41.725Z,1007.43
2017-06-16T08:12:43.171Z,1007.45
2017-06-16T08:13:44.609Z,1007.48
2017-06-16T08:14:46.042Z,1007.46
2017-06-16T08:15:47.479Z,1007.46
2017-06-16T08:16:48.917Z,1007.49
2017-06-16T08:17:50.362Z,1007.45
2017-06-16T08:18:51.818Z,1007.52
2017-06-16T08:19:53.247Z,1007.51
2017-06-16T08:20:54.686Z,1007.47
2017-06-16T08:21:56.123Z,1007.50
2017-06-16T08:22:57.561Z,1007.47
2017-06-16T08:23:59.007Z,1007.46
2017-06-16T08:25:00.452Z,1007.46
2017-06-16T08:26:01.901Z,1007.49
2017-06-16T08:27:03.330Z,1007.51
2017-06-16T08:28:04.766Z,1007.47
2017-06-16T08:29:06.207Z,1007.50
2017-06-16T08:30:07.648Z,1007.48
2017-06-16T08:31:09.084Z,1007.54
2017-06-16T08:32:10.569Z,1007.51
2017-06-16T08:33:11.966Z,1007.56
2017-06-16T08:34:13.410Z,1007.57
2017-06-16T08:35:14.847Z,1007.56
2017-06-16T08:36:16.277Z,1007.52
2017-06-16T08:37:17.729Z,1007.54
2017-06-16T08:38:19.155Z,1007.61
2017-06-16T08:39:20.595Z,1007.62
2017-06-16T08:40:22.045Z,1007.67
2017-06-16T08:41:23.481Z,1007.65
2017-06-16T08:42:24.927Z,1007.64
2017-06-16T08:43:26.373Z,1007.66
2017-06-16T08:44:27.845Z,1007.69
2017-06-16T08:45:29.274Z,1007.66
2017-06-16T08:46:30.710Z,1007.67
2017-06-16T08:47:32.153Z,1007.67
2017-06-16T08:48:33.585Z,1007.64
2017-06-16T08:49:35.019Z,1007.67
2017-06-16T08:50:36.458Z,1007.63
2017-06-16T08:51:37.894Z,1007.63
2017-06-16T08:52:39.326Z,1007.59
2017-06-16T08:53:40.770Z,1007.57
2017-06-16T08:54:42.209Z,1007.59
2017-06-16T08:55:43.644Z,1007.58
2017-06-16T08:56:45.080Z,1007.63
2017-06-16T08:57:46.517Z,1007.61
2017-06-16T08:58:47.952Z,1007.62
2017-06-16T08:59:49.393Z,1007.70
2017-06-16T09:00:50.834Z,1007.71
2017-06-16T09:01:52.271Z,1007.69
2017-06-16T09:02:53.706Z,1007.77
2017-06-16T09:03:55.150Z,1007.73
2017-06-16T09:04:56.587Z,1007.82
2017-06-16T09:05:58.023Z,1007.86
2017-06-16T09:06:59.458Z,1007.82
2017-06-16T09:08:00.900Z,1007.84
2017-06-16T09:09:02.341Z,1007.76
2017-06-16T09:10:03.787Z,1007.81
2017-06-16T09:11:05.234Z,1007.82
2017-06-16T09:12:06.667Z,1007.80
2017-06-16T09:13:08.111Z,1007.78
2017-06-16T09:14:09.549Z,1007.82
2017-06-16T09:15:10.989Z,1007.84
2017-06-16T09:16:12.423Z,1007.82
2017-06-16T09:17:13.868Z,1007.79
2017-06-16T09:18:15.308Z,1007.79
2017-06-16T09:19:16.746Z,1007.81
2017-06-16T09:20:18.193Z,1007.89
2017-06-16T09:21:19.628Z,1007.90
2017-06-16T09:22:21.085Z,1007.97
2017-06-16T09:23:22.523Z,1007.97
2017-06-16T09:24:23.961Z,1007.96
2017-06-16T09:25:25.400Z,1008.00
2017-06-16T09:26:26.838Z,1007.97
2017-06-16T09:27:28.274Z,1007.94
2017-06-16T09:28:29.709Z,1008.00
2017-06-16T09:29:31.151Z,1008.01
2017-06-16T09:30:32.590Z,1007.99
2017-06-16T09:31:34.032Z,1008.01
2017-06-16T09:32:35.471Z,1007.98
2017-06-16T09:33:36.910Z,1007.96
2017-06-16T09:34:38.345Z,1007.90
2017-06-16T09:35:39.790Z,1007.91
2017-06-16T09:36:41.228Z,1007.98
2017-06-16T09:37:42.666Z,1007.94
2017-06-16T09:38:44.109Z,1007.90
2017-06-16T09:39:45.553Z,1008.00
2017-06-16T09:40:46.990Z,1008.03
2017-06-16T09:41:48.428Z,1007.99
2017-06-16T09:42:49.868Z,1008.04
2017-06-16T09:43:51.304Z,1008.06
2017-06-16T09:44:52.753Z,1008.05
2017-06-16T09:45:54.195Z,1008.01
2017-06-16T09:46:55.633Z,1008.04
2017-06-16T09:47:57.069Z,1008.04
2017-06-16T09:48:58.509Z,1007.96
2017-06-16T09:49:59.945Z,1007.94
2017-06-16T09:51:01.392Z,1007.97
2017-06-16T09:52:02.820Z,1007.92
2017-06-16T09:53:04.259Z,1007.90
2017-06-16T09:54:05.702Z,1007.92
2017-06-16T09:55:07.167Z,1007.94
2017-06-16T09:56:08.614Z,1007.96
2017-06-16T09:57:10.056Z,1007.90
2017-06-16T09:58:11.497Z,1007.92
2017-06-16T09:59:12.942Z,1007.87
2017-06-16T10:00:14.371Z,1007.89
2017-06-16T10:01:15.817Z,1007.88
2017-06-16T10:02:17.261Z,1007.89
2017-06-16T10:03:18.701Z,1007.90
2017-06-16T10:04:20.138Z,1007.85
2017-06-16T10:05:21.580Z,1007.92
2017-06-16T10:06:23.017Z,1007.88
2017-06-16T10:07:24.457Z,1007.94
2017-06-16T10:08:25.903Z,1007.96
2017-06-16T10:09:27.338Z,1007.97
2017-06-16T10:10:28.773Z,1007.99
2017-06-16T10:11:30.207Z,1007.95
2017-06-16T10:12:31.660Z,1007.97
2017-06-16T10:13:33.100Z,1007.97
2017-06-16T10:14:34.541Z,1007.95
2017-06-16T10:15:35.978Z,1008.00
2017-06-16T10:16:37.418Z,1007.98
2017-06-16T10:17:38.854Z,1007.95
2017-06-16T10:18:40.293Z,1007.97
2017-06-16T10:19:41.740Z,1007.96
2017-06-16T10:20:43.180Z,1007.97
2017-06-16T10:21:44.627Z,1007.99
2017-06-16T10:22:46.076Z,1007.98
2017-06-16T10:23:47.513Z,1007.98
2017-06-16T10:24:48.953Z,1008.03
2017-06-16T10:25:50.406Z,1008.01
2017-06-16T10:26:51.846Z,1008.06
2017-06-16T10:27:53.284Z,1008.06
2017-06-16T10:28:54.720Z,1008.09
2017-06-16T10:29:56.156Z,1008.12
2017-06-16T10:30:57.600Z,1008.11
2017-06-16T10:31:59.038Z,1008.12
2017-06-16T10:33:00.479Z,1008.18
2017-06-16T10:34:01.933Z,1008.17
2017-06-16T10:35:03.372Z,1008.15
2017-06-16T10:36:04.816Z,1008.17
2017-06-16T10:37:06.248Z,1008.16
2017-06-16T10:38:07.685Z,1008.16
2017-06-16T10:39:09.124Z,1008.15
2017-06-16T10:40:10.558Z,1008.11
2017-06-16T10:41:11.995Z,1008.18
2017-06-16T10:42:13.439Z,1008.22
2017-06-16T10:43:14.896Z,1008.20
2017-06-16T10:44:16.322Z,1008.21
2017-06-16T10:45:17.766Z,1008.22
2017-06-16T10:46:19.202Z,1008.20
2017-06-16T10:47:20.637Z,1008.27
2017-06-16T10:48:22.084Z,1008.27
2017-06-16T10:49:23.527Z,1008.20
2017-06-16T10:50:24.965Z,1008.24
2017-06-16T10:51:26.408Z,1008.26
2017-06-16T10:52:27.847Z,1008.28
2017-06-16T10:53:29.366Z,1008.29
2017-06-16T10:54:30.800Z,1008.30
2017-06-16T10:55:32.249Z,1008.28
2017-06-16T10:56:33.684Z,1008.29
2017-06-16T10:57:35.152Z,1008.28
2017-06-16T10:58:36.609Z,1008.26
2017-06-16T10:59:38.049Z,1008.29
2017-06-16T11:00:39.489Z,1008.27
2017-06-16T11:01:40.932Z,1008.33
2017-06-16T11:02:42.369Z,1008.34
2017-06-16T11:03:43.811Z,1008.30
2017-06-16T11:04:45.256Z,1008.30
2017-06-16T11:05:46.702Z,1008.34
2017-06-16T11:06:48.142Z,1008.27
2017-06-16T11:07:49.584Z,1008.29
2017-06-16T11:08:51.020Z,1008.22
2017-06-16T11:09:52.459Z,1008.28
2017-06-16T11:10:53.903Z,1008.26
2017-06-16T11:11:55.343Z,1008.30
2017-06-16T11:12:56.780Z,1008.31
2017-06-16T11:13:58.217Z,1008.31
2017-06-16T11:14:59.657Z,1008.30
2017-06-16T11:16:01.093Z,1008.30
2017-06-16T11:17:02.527Z,1008.32
2017-06-16T11:18:03.970Z,1008.27
2017-06-16T11:19:05.412Z,1008.23
2017-06-16T11:20:06.848Z,1008.25
2017-06-16T11:21:08.283Z,1008.23
2017-06-16T11:22:09.721Z,1008.24
2017-06-16T11:23:11.155Z,1008.31
2017-06-16T11:24:12.594Z,1008.30
2017-06-16T11:25:14.038Z,1008.34
2017-06-16T11:26:15.467Z,1008.35
2017-06-16T11:27:16.902Z,1008.35
2017-06-16T11:28:18.341Z,1008.37
2017-06-16T11:29:19.779Z,1008.34
2017-06-16T11:30:21.224Z,1008.34
2017-06-16T11:31:22.670Z,1008.30
2017-06-16T11:32:24.114Z,1008.36
2017-06-16T11:33:25.545Z,1008.39
2017-06-16T11:34:26.986Z,1008.39
2017-06-16T11:35:28.430Z,1008.43
2017-06-16T11:36:29.868Z,1008.44
2017-06-16T11:37:31.313Z,1008.45
2017-06-16T11:38:32.747Z,1008.48
2017-06-16T11:39:34.195Z,1008.52
2017-06-16T11:40:35.629Z,1008.46
2017-06-16T11:41:37.071Z,1008.49
2017-06-16T11:42:38.513Z,1008.55
2017-06-16T11:43:39.955Z,1008.58
2017-06-16T11:44:41.400Z,1008.67
2017-06-16T11:45:42.854Z,1008.61
2017-06-16T11:46:44.299Z,1008.64
2017-06-16T11:47:45.736Z,1008.65
2017-06-16T11:48:47.174Z,1008.61
2017-06-16T11:49:48.617Z,1008.63
2017-06-16T11:50:50.055Z,1008.63
2017-06-16T11:51:51.501Z,1008.62
2017-06-16T11:52:52.961Z,1008.59
2017-06-16T11:53:54.407Z,1008.60
2017-06-16T11:54:55.845Z,1008.54
2017-06-16T11:55:57.279Z,1008.54
2017-06-16T11:56:58.726Z,1008.59
2017-06-16T11:58:00.165Z,1008.63
2017-06-16T11:59:01.605Z,1008.58
2017-06-16T12:00:03.045Z,1008.58
2017-06-16T12:01:04.488Z,1008.57
2017-06-16T12:02:05.919Z,1008.53
2017-06-16T12:03:07.368Z,1008.53
2017-06-16T12:04:08.808Z,1008.44
2017-06-16T12:05:10.250Z,1008.49
2017-06-16T12:06:11.686Z,1008.48
2017-06-16T12:07:13.128Z,1008.48
2017-06-16T12:08:14.572Z,1008.52
2017-06-16T12:09:16.000Z,1008.47
2017-06-16T12:10:17.446Z,1008.45
2017-06-16T12:11:18.884Z,1008.48
2017-06-16T12:12:20.319Z,1008.46
2017-06-16T12:13:21.759Z,1008.47
2017-06-16T12:14:23.198Z,1008.42
2017-06-16T12:15:24.644Z,1008.48
2017-06-16T12:16:26.077Z,1008.40
2017-06-16T12:17:27.523Z,1008.42
2017-06-16T12:18:29.014Z,1008.41
2017-06-16T12:19:30.464Z,1008.40
2017-06-16T12:20:31.921Z,1008.38
2017-06-16T12:21:33.360Z,1008.37
2017-06-16T12:22:34.820Z,1008.38